createdAt,value
2023-12-29T00:00:16.705Z,8.74
2023-12-29T00:01:17.339Z,8.76
2023-12-29T00:02:17.038Z,8.78
2023-12-29T00:03:16.624Z,8.81
2023-12-29T00:04:17.226Z,8.78
2023-12-29T00:05:16.844Z,8.76
2023-12-29T00:06:16.420Z,8.76
2023-12-29T00:07:18.657Z,8.75
2023-12-29T00:08:16.654Z,8.75
2023-12-29T00:09:17.210Z,8.74
2023-12-29T00:10:16.819Z,8.71
2023-12-29T00:11:16.430Z,8.71
2023-12-29T00:12:17.098Z,8.71
2023-12-29T00:13:16.728Z,8.74
2023-12-29T00:14:16.326Z,8.74
2023-12-29T00:15:16.959Z,8.71
2023-12-29T00:16:16.590Z,8.69
2023-12-29T00:17:17.299Z,8.67
2023-12-29T00:18:16.887Z,8.67
2023-12-29T00:19:16.795Z,8.60
2023-12-29T00:20:25.114Z,8.57
2023-12-29T00:21:19.029Z,8.58
2023-12-29T00:22:16.429Z,8.57
2023-12-29T00:23:17.118Z,8.56
2023-12-29T00:24:16.656Z,8.58
2023-12-29T00:25:17.245Z,8.60
2023-12-29T00:26:16.901Z,8.57
2023-12-29T00:27:16.432Z,8.54
2023-12-29T00:28:16.991Z,8.54
2023-12-29T00:29:16.567Z,8.53
2023-12-29T00:30:17.141Z,8.47
2023-12-29T00:31:16.903Z,8.43
2023-12-29T00:32:16.770Z,8.40
2023-12-29T00:33:16.458Z,8.39
2023-12-29T00:34:17.248Z,8.37
2023-12-29T00:35:17.077Z,8.36
2023-12-29T00:36:16.619Z,8.32
2023-12-29T00:37:17.215Z,8.25
2023-12-29T00:38:16.893Z,8.23
2023-12-29T00:39:16.462Z,8.30
2023-12-29T00:40:17.092Z,8.33
2023-12-29T00:41:16.846Z,8.32
2023-12-29T00:42:16.430Z,8.37
2023-12-29T00:43:17.058Z,8.43
2023-12-29T00:44:16.641Z,8.50
2023-12-29T00:45:17.257Z,8.54
2023-12-29T00:46:16.860Z,8.53
2023-12-29T00:47:16.709Z,8.58
2023-12-29T00:48:16.570Z,8.57
2023-12-29T00:49:16.502Z,8.56
2023-12-29T00:50:17.288Z,8.57
2023-12-29T00:51:16.870Z,8.54
2023-12-29T00:52:16.484Z,8.60
2023-12-29T00:53:17.122Z,8.75
2023-12-29T00:54:16.875Z,8.76
2023-12-29T00:55:17.151Z,8.79
2023-12-29T00:56:16.764Z,8.78
2023-12-29T00:57:16.375Z,8.79
2023-12-29T00:58:17.084Z,8.76
2023-12-29T00:59:16.843Z,8.69
2023-12-29T01:00:16.408Z,8.65
2023-12-29T01:01:17.027Z,8.65
2023-12-29T01:02:16.726Z,8.71
2023-12-29T01:03:17.372Z,8.69
2023-12-29T01:04:17.138Z,8.69
2023-12-29T01:05:16.422Z,8.69
2023-12-29T01:06:17.019Z,8.71
2023-12-29T01:07:16.610Z,8.76
2023-12-29T01:08:16.596Z,8.76
2023-12-29T01:09:17.135Z,8.74
2023-12-29T01:10:16.768Z,8.75
2023-12-29T01:11:16.590Z,8.79
2023-12-29T01:12:17.158Z,8.79
2023-12-29T01:13:16.731Z,8.78
2023-12-29T01:14:16.727Z,8.79
2023-12-29T01:15:17.297Z,8.81
2023-12-29T01:16:16.933Z,8.87
2023-12-29T01:17:16.542Z,8.82
2023-12-29T01:18:17.162Z,8.82
2023-12-29T01:19:16.992Z,8.81
2023-12-29T01:20:16.825Z,8.85
2023-12-29T01:21:16.466Z,8.82
2023-12-29T01:22:17.122Z,8.84
2023-12-29T01:23:16.782Z,8.81
2023-12-29T01:24:16.809Z,8.76
2023-12-29T01:25:17.142Z,8.75
2023-12-29T01:26:16.887Z,8.72
2023-12-29T01:27:16.467Z,8.69
2023-12-29T01:28:17.241Z,8.74
2023-12-29T01:29:16.913Z,8.79
2023-12-29T01:30:16.583Z,8.75
2023-12-29T01:31:17.436Z,8.71
2023-12-29T01:32:17.275Z,8.72
2023-12-29T01:33:16.929Z,8.69
2023-12-29T01:34:16.611Z,8.71
2023-12-29T01:35:18.395Z,8.69
2023-12-29T01:36:18.030Z,8.65
2023-12-29T01:37:16.735Z,8.67
2023-12-29T01:38:16.533Z,8.65
2023-12-29T01:39:17.059Z,8.67
2023-12-29T01:40:16.777Z,8.61
2023-12-29T01:41:16.511Z,8.51
2023-12-29T01:42:17.075Z,8.51
2023-12-29T01:43:16.676Z,8.56
2023-12-29T01:44:16.361Z,8.56
2023-12-29T01:45:16.902Z,8.53
2023-12-29T01:46:16.517Z,8.56
2023-12-29T01:47:17.137Z,8.57
2023-12-29T01:48:17.097Z,8.60
2023-12-29T01:49:16.758Z,8.57
2023-12-29T01:50:17.772Z,8.60
2023-12-29T01:51:16.555Z,8.58
2023-12-29T01:52:17.325Z,8.60
2023-12-29T01:53:17.010Z,8.61
2023-12-29T01:54:16.923Z,8.64
2023-12-29T01:55:16.716Z,8.67
2023-12-29T01:56:16.434Z,8.68
2023-12-29T01:57:17.004Z,8.69
2023-12-29T01:58:16.610Z,8.72
2023-12-29T02:00:16.315Z,8.79
2023-12-29T02:01:16.923Z,8.79
2023-12-29T02:02:16.639Z,8.75
2023-12-29T02:03:17.214Z,8.79
2023-12-29T02:04:16.895Z,8.78
2023-12-29T02:05:16.577Z,8.82
2023-12-29T02:06:17.402Z,8.84
2023-12-29T02:07:17.010Z,8.85
2023-12-29T02:08:16.779Z,8.82
2023-12-29T02:09:16.376Z,8.88
2023-12-29T02:10:17.288Z,8.91
2023-12-29T02:11:17.079Z,8.88
2023-12-29T02:12:16.639Z,8.95
2023-12-29T02:13:17.218Z,8.99
2023-12-29T02:14:16.907Z,8.98
2023-12-29T02:15:16.477Z,9.02
2023-12-29T02:16:17.064Z,9.02
2023-12-29T02:17:16.586Z,9.10
2023-12-29T02:18:17.384Z,9.05
2023-12-29T02:19:17.365Z,9.05
2023-12-29T02:20:17.109Z,9.10
2023-12-29T02:21:16.664Z,9.15
2023-12-29T02:22:17.288Z,9.13
2023-12-29T02:23:16.932Z,9.15
2023-12-29T02:24:16.515Z,9.13
2023-12-29T02:25:17.177Z,9.12
2023-12-29T02:26:16.882Z,9.10
2023-12-29T02:27:16.414Z,9.10
2023-12-29T02:28:17.029Z,9.13
2023-12-29T02:29:16.934Z,9.13
2023-12-29T02:30:16.509Z,9.12
2023-12-29T02:31:17.197Z,9.13
2023-12-29T02:32:17.035Z,9.16
2023-12-29T02:33:16.751Z,9.19
2023-12-29T02:34:16.685Z,9.18
2023-12-29T02:35:16.572Z,9.15
2023-12-29T02:36:17.247Z,9.13
2023-12-29T02:37:16.937Z,9.12
2023-12-29T02:38:16.532Z,9.19
2023-12-29T02:39:17.114Z,9.18
2023-12-29T02:40:16.771Z,9.18
2023-12-29T02:41:16.553Z,9.19
2023-12-29T02:42:17.137Z,9.23
2023-12-29T02:43:16.842Z,9.18
2023-12-29T02:44:16.561Z,9.23
2023-12-29T02:45:17.132Z,9.26
2023-12-29T02:46:16.797Z,9.25
2023-12-29T02:47:16.515Z,9.22
2023-12-29T02:48:17.150Z,9.20
2023-12-29T02:49:16.915Z,9.22
2023-12-29T02:50:16.715Z,9.19
2023-12-29T02:51:17.327Z,9.22
2023-12-29T02:52:16.930Z,9.13
2023-12-29T02:53:16.522Z,9.18
2023-12-29T02:54:17.126Z,9.10
2023-12-29T02:55:16.784Z,9.16
2023-12-29T02:56:16.562Z,9.18
2023-12-29T02:57:17.146Z,9.19
2023-12-29T02:58:16.776Z,9.19
2023-12-29T02:59:16.375Z,9.15
2023-12-29T03:00:16.973Z,9.16
2023-12-29T03:01:16.617Z,9.13
2023-12-29T03:02:16.446Z,9.10
2023-12-29T03:03:17.026Z,9.08
2023-12-29T03:04:16.760Z,9.01
2023-12-29T03:05:16.714Z,8.96
2023-12-29T03:06:16.384Z,8.92
2023-12-29T03:07:17.075Z,8.87
2023-12-29T03:08:16.713Z,8.82
2023-12-29T03:09:17.278Z,8.79
2023-12-29T03:10:16.909Z,8.76
2023-12-29T03:11:16.729Z,8.71
2023-12-29T03:12:16.632Z,8.69
2023-12-29T03:13:17.336Z,8.72
2023-12-29T03:14:17.023Z,8.67
2023-12-29T03:15:16.654Z,8.67
2023-12-29T03:16:17.268Z,8.64
2023-12-29T03:17:16.900Z,8.63
2023-12-29T03:18:16.501Z,8.58
2023-12-29T03:19:17.346Z,8.56
2023-12-29T03:20:17.032Z,8.51
2023-12-29T03:21:16.634Z,8.46
2023-12-29T03:22:17.227Z,8.41
2023-12-29T03:23:16.836Z,8.41
2023-12-29T03:24:16.375Z,8.40
2023-12-29T03:25:17.107Z,8.39
2023-12-29T03:26:16.961Z,8.37
2023-12-29T03:27:16.531Z,8.33
2023-12-29T03:28:17.190Z,8.29
2023-12-29T03:29:17.106Z,8.29
2023-12-29T03:30:16.898Z,8.26
2023-12-29T03:31:16.792Z,8.19
2023-12-29T03:32:16.449Z,8.16
2023-12-29T03:33:17.242Z,8.11
2023-12-29T03:34:17.051Z,8.09
2023-12-29T03:35:16.882Z,8.08
2023-12-29T03:36:16.427Z,8.05
2023-12-29T03:37:17.018Z,8.06
2023-12-29T03:38:16.655Z,8.05
2023-12-29T03:39:17.228Z,8.06
2023-12-29T03:40:16.804Z,8.06
2023-12-29T03:41:16.511Z,8.06
2023-12-29T03:42:17.102Z,8.06
2023-12-29T03:43:16.712Z,8.06
2023-12-29T03:44:16.409Z,8.05
2023-12-29T03:45:17.012Z,8.12
2023-12-29T03:46:16.685Z,8.08
2023-12-29T03:47:17.242Z,8.05
2023-12-29T03:48:16.891Z,7.97
2023-12-29T03:49:16.714Z,8.00
2023-12-29T03:50:16.435Z,7.94
2023-12-29T03:51:17.031Z,7.91
2023-12-29T03:52:16.634Z,7.90
2023-12-29T03:53:17.254Z,7.88
2023-12-29T03:54:16.811Z,7.85
2023-12-29T03:55:16.454Z,7.84
2023-12-29T03:56:17.261Z,7.80
2023-12-29T03:57:16.939Z,7.77
2023-12-29T03:58:16.523Z,7.74
2023-12-29T03:59:17.123Z,7.76
2023-12-29T04:00:16.897Z,7.76
2023-12-29T04:01:16.592Z,7.74
2023-12-29T04:02:16.507Z,7.76
2023-12-29T04:03:17.101Z,7.71
2023-12-29T04:04:16.759Z,7.68
2023-12-29T04:05:16.478Z,7.67
2023-12-29T04:06:17.095Z,7.66
2023-12-29T04:07:16.658Z,7.63
2023-12-29T04:08:17.232Z,7.63
2023-12-29T04:09:16.831Z,7.64
2023-12-29T04:10:16.429Z,7.60
2023-12-29T04:11:17.002Z,7.58
2023-12-29T04:12:16.562Z,7.57
2023-12-29T04:13:17.106Z,7.57
2023-12-29T04:14:16.785Z,7.61
2023-12-29T04:15:16.338Z,7.56
2023-12-29T04:16:16.955Z,7.63
2023-12-29T04:17:16.504Z,7.67
2023-12-29T04:18:17.107Z,7.67
2023-12-29T04:19:16.898Z,7.67
2023-12-29T04:20:16.754Z,7.67
2023-12-29T04:21:17.357Z,7.68
2023-12-29T04:22:16.906Z,7.68
2023-12-29T04:23:16.492Z,7.71
2023-12-29T04:24:17.061Z,7.74
2023-12-29T04:25:16.661Z,7.73
2023-12-29T04:26:17.216Z,7.68
2023-12-29T04:27:16.797Z,7.71
2023-12-29T04:28:16.365Z,7.77
2023-12-29T04:29:16.955Z,7.80
2023-12-29T04:30:16.528Z,7.85
2023-12-29T04:31:17.186Z,7.92
2023-12-29T04:32:16.838Z,7.91
2023-12-29T04:33:16.403Z,7.98
2023-12-29T04:34:17.324Z,7.94
2023-12-29T04:35:17.041Z,7.97
2023-12-29T04:36:16.628Z,7.94
2023-12-29T04:37:17.170Z,7.90
2023-12-29T04:38:16.728Z,7.90
2023-12-29T04:39:17.307Z,7.85
2023-12-29T04:40:16.858Z,8.01
2023-12-29T04:41:16.423Z,8.11
2023-12-29T04:42:17.026Z,8.12
2023-12-29T04:43:16.566Z,8.11
2023-12-29T04:44:17.161Z,7.97
2023-12-29T04:45:16.690Z,8.04
2023-12-29T04:46:17.330Z,8.18
2023-12-29T04:47:16.946Z,8.19
2023-12-29T04:48:16.554Z,8.28
2023-12-29T04:49:17.202Z,8.26
2023-12-29T04:50:17.123Z,8.23
2023-12-29T04:51:16.800Z,8.15
2023-12-29T04:52:16.378Z,8.11
2023-12-29T04:53:16.969Z,8.26
2023-12-29T04:54:16.536Z,8.36
2023-12-29T04:55:17.199Z,8.36
2023-12-29T04:56:17.019Z,8.50
2023-12-29T04:57:16.570Z,8.57
2023-12-29T04:58:17.149Z,8.63
2023-12-29T04:59:16.898Z,8.63
2023-12-29T05:00:16.467Z,8.67
2023-12-29T05:01:17.070Z,8.68
2023-12-29T05:02:16.920Z,8.72
2023-12-29T05:03:16.504Z,8.72
2023-12-29T05:04:17.214Z,8.74
2023-12-29T05:05:16.923Z,8.76
2023-12-29T05:06:16.523Z,8.94
2023-12-29T05:07:17.124Z,8.92
2023-12-29T05:08:16.804Z,8.92
2023-12-29T05:09:16.352Z,8.88
2023-12-29T05:10:16.962Z,8.85
2023-12-29T05:11:16.682Z,8.82
2023-12-29T05:12:17.234Z,8.99
2023-12-29T05:13:16.812Z,9.12
2023-12-29T05:14:16.425Z,9.09
2023-12-29T05:15:16.968Z,9.13
2023-12-29T05:16:16.523Z,9.01
2023-12-29T05:17:17.095Z,8.92
2023-12-29T05:18:16.740Z,8.99
2023-12-29T05:19:16.532Z,9.08
2023-12-29T05:20:17.292Z,9.10
2023-12-29T05:21:16.849Z,9.09
2023-12-29T05:22:16.432Z,9.09
2023-12-29T05:23:17.153Z,9.02
2023-12-29T05:24:16.707Z,9.03
2023-12-29T05:25:17.316Z,9.06
2023-12-29T05:26:16.943Z,9.08
2023-12-29T05:27:16.522Z,9.16
2023-12-29T05:28:17.083Z,9.18
2023-12-29T05:29:16.712Z,9.10
2023-12-29T05:30:17.299Z,9.05
2023-12-29T05:31:16.919Z,9.05
2023-12-29T05:32:16.638Z,9.06
2023-12-29T05:33:16.489Z,9.01
2023-12-29T05:34:17.237Z,8.99
2023-12-29T05:35:16.939Z,8.98
2023-12-29T05:36:16.486Z,9.05
2023-12-29T05:37:17.096Z,9.01
2023-12-29T05:38:16.918Z,9.02
2023-12-29T05:39:16.478Z,8.96
2023-12-29T05:40:17.087Z,8.98
2023-12-29T05:41:16.827Z,8.99
2023-12-29T05:42:16.370Z,9.06
2023-12-29T05:43:16.923Z,9.01
2023-12-29T05:44:16.563Z,9.02
2023-12-29T05:45:17.099Z,8.92
2023-12-29T05:46:16.744Z,8.88
2023-12-29T05:47:16.456Z,8.87
2023-12-29T05:48:17.045Z,8.78
2023-12-29T05:49:16.896Z,8.78
2023-12-29T05:50:16.596Z,8.75
2023-12-29T05:51:17.135Z,8.75
2023-12-29T05:52:16.756Z,8.71
2023-12-29T05:53:16.426Z,8.72
2023-12-29T05:54:16.983Z,8.71
2023-12-29T05:55:16.558Z,8.69
2023-12-29T05:56:17.160Z,8.61
2023-12-29T05:57:16.706Z,8.58
2023-12-29T05:58:17.291Z,8.68
2023-12-29T05:59:16.976Z,8.67
2023-12-29T06:00:16.527Z,8.63
2023-12-29T06:01:17.128Z,8.56
2023-12-29T06:02:16.821Z,8.47
2023-12-29T06:03:16.406Z,8.41
2023-12-29T06:04:17.095Z,8.40
2023-12-29T06:05:16.714Z,8.41
2023-12-29T06:06:17.359Z,8.35
2023-12-29T06:07:17.002Z,8.35
2023-12-29T06:08:16.657Z,8.29
2023-12-29T06:09:17.208Z,8.19
2023-12-29T06:10:16.788Z,8.16
2023-12-29T06:11:16.463Z,8.22
2023-12-29T06:12:17.022Z,8.26
2023-12-29T06:13:16.623Z,8.22
2023-12-29T06:14:17.278Z,8.15
2023-12-29T06:16:17.119Z,8.12
2023-12-29T06:17:16.811Z,8.08
2023-12-29T06:18:16.571Z,8.06
2023-12-29T06:19:17.389Z,8.08
2023-12-29T06:20:17.009Z,8.11
2023-12-29T06:21:16.547Z,8.13
2023-12-29T06:22:17.168Z,8.20
2023-12-29T06:23:16.799Z,8.16
2023-12-29T06:24:16.363Z,8.16
2023-12-29T06:25:17.011Z,8.09
2023-12-29T06:26:16.640Z,8.01
2023-12-29T06:27:17.249Z,8.04
2023-12-29T06:28:16.889Z,7.90
2023-12-29T06:29:16.538Z,7.81
2023-12-29T06:30:17.127Z,7.88
2023-12-29T06:31:16.818Z,7.88
2023-12-29T06:32:16.498Z,7.80
2023-12-29T06:33:17.067Z,7.80
2023-12-29T06:34:16.915Z,7.80
2023-12-29T06:35:16.847Z,7.70
2023-12-29T06:36:16.411Z,7.63
2023-12-29T06:37:16.989Z,7.60
2023-12-29T06:38:16.597Z,7.58
2023-12-29T06:39:17.191Z,7.53
2023-12-29T06:40:16.780Z,7.54
2023-12-29T06:41:16.458Z,7.49
2023-12-29T06:42:17.076Z,7.49
2023-12-29T06:43:16.668Z,7.54
2023-12-29T06:44:17.247Z,7.51
2023-12-29T06:45:16.796Z,7.63
2023-12-29T06:46:16.481Z,7.57
2023-12-29T06:47:17.219Z,7.57
2023-12-29T06:48:17.866Z,7.54
2023-12-29T06:49:16.817Z,7.56
2023-12-29T06:50:16.724Z,7.53
2023-12-29T06:51:17.339Z,7.58
2023-12-29T06:52:16.931Z,7.61
2023-12-29T06:53:16.597Z,7.57
2023-12-29T06:54:17.148Z,7.63
2023-12-29T06:55:16.770Z,7.60
2023-12-29T06:56:16.385Z,7.61
2023-12-29T06:57:16.956Z,7.61
2023-12-29T06:58:16.574Z,7.61
2023-12-29T06:59:17.209Z,7.60
2023-12-29T07:00:16.861Z,7.58
2023-12-29T07:01:16.548Z,7.58
2023-12-29T07:02:17.289Z,7.58
2023-12-29T07:03:16.888Z,7.61
2023-12-29T07:04:16.509Z,7.68
2023-12-29T07:05:17.157Z,7.76
2023-12-29T07:06:16.805Z,7.70
2023-12-29T07:07:16.505Z,7.71
2023-12-29T07:08:17.261Z,7.68
2023-12-29T07:09:16.851Z,7.70
2023-12-29T07:10:16.514Z,7.70
2023-12-29T07:11:16.369Z,7.71
2023-12-29T07:12:16.991Z,7.97
2023-12-29T07:13:16.678Z,8.05
2023-12-29T07:14:16.466Z,8.05
2023-12-29T07:15:17.060Z,8.04
2023-12-29T07:16:16.664Z,8.05
2023-12-29T07:17:17.295Z,8.09
2023-12-29T07:18:17.003Z,8.16
2023-12-29T07:19:16.936Z,8.16
2023-12-29T07:20:16.659Z,8.13
2023-12-29T07:21:19.927Z,8.20
2023-12-29T07:22:16.873Z,8.26
2023-12-29T07:23:16.544Z,8.28
2023-12-29T07:24:17.154Z,8.26
2023-12-29T07:25:16.912Z,8.28
2023-12-29T07:26:16.624Z,8.40
2023-12-29T07:27:17.242Z,8.41
2023-12-29T07:28:16.875Z,8.40
2023-12-29T07:29:16.568Z,8.29
2023-12-29T07:30:17.204Z,8.29
2023-12-29T07:31:17.007Z,8.20
2023-12-29T07:32:16.748Z,8.16
2023-12-29T07:33:17.408Z,8.11
2023-12-29T07:34:17.325Z,8.05
2023-12-29T07:35:17.216Z,8.04
2023-12-29T07:36:18.526Z,7.95
2023-12-29T07:37:17.199Z,7.97
2023-12-29T07:38:16.972Z,7.95
2023-12-29T07:39:16.525Z,7.95
2023-12-29T07:40:17.162Z,7.97
2023-12-29T07:41:16.804Z,7.92
2023-12-29T07:42:16.357Z,7.91
2023-12-29T07:43:17.186Z,7.92
2023-12-29T07:44:16.883Z,7.92
2023-12-29T07:45:16.433Z,7.90
2023-12-29T07:46:17.040Z,7.90
2023-12-29T07:47:16.667Z,7.88
2023-12-29T07:48:17.281Z,7.88
2023-12-29T07:49:17.038Z,7.90
2023-12-29T07:50:16.704Z,7.91
2023-12-29T07:51:17.275Z,7.92
2023-12-29T07:52:16.898Z,7.92
2023-12-29T07:53:16.531Z,7.91
2023-12-29T07:54:17.064Z,7.91
2023-12-29T07:55:16.612Z,7.94
2023-12-29T07:56:17.222Z,7.94
2023-12-29T07:57:16.838Z,7.97
2023-12-29T07:58:16.428Z,8.00
2023-12-29T07:59:17.033Z,7.97
2023-12-29T08:00:16.591Z,7.98
2023-12-29T08:01:17.228Z,7.95
2023-12-29T08:02:17.051Z,7.95
2023-12-29T08:03:16.632Z,7.98
2023-12-29T08:04:17.362Z,8.01
2023-12-29T08:05:17.104Z,8.02
2023-12-29T08:06:16.684Z,8.04
2023-12-29T08:07:16.490Z,8.09
2023-12-29T08:08:17.279Z,8.09
2023-12-29T08:09:16.842Z,8.09
2023-12-29T08:10:16.471Z,8.13
2023-12-29T08:11:17.342Z,8.13
2023-12-29T08:12:17.004Z,8.16
2023-12-29T08:13:16.611Z,8.16
2023-12-29T08:14:17.288Z,8.15
2023-12-29T08:15:16.844Z,8.20
2023-12-29T08:16:16.458Z,8.15
2023-12-29T08:17:17.224Z,8.18
2023-12-29T08:18:16.803Z,8.23
2023-12-29T08:19:16.577Z,8.26
2023-12-29T08:20:16.346Z,8.26
2023-12-29T08:21:16.944Z,8.06
2023-12-29T08:22:16.547Z,8.04
2023-12-29T08:23:17.156Z,8.02
2023-12-29T08:24:16.720Z,8.02
2023-12-29T08:25:17.279Z,8.11
2023-12-29T08:26:16.991Z,8.16
2023-12-29T08:27:16.566Z,8.20
2023-12-29T08:28:17.145Z,8.19
2023-12-29T08:29:16.802Z,8.19
2023-12-29T08:30:16.357Z,8.30
2023-12-29T08:31:17.215Z,8.43
2023-12-29T08:32:17.054Z,8.47
2023-12-29T08:33:16.593Z,8.56
2023-12-29T08:34:17.724Z,8.63
2023-12-29T08:35:16.782Z,8.67
2023-12-29T08:36:16.422Z,8.65
2023-12-29T08:37:17.083Z,8.65
2023-12-29T08:38:16.682Z,8.65
2023-12-29T08:39:17.253Z,8.63
2023-12-29T08:40:16.869Z,8.56
2023-12-29T08:41:16.498Z,8.56
2023-12-29T08:42:17.098Z,8.58
2023-12-29T08:43:16.765Z,8.67
2023-12-29T08:44:16.447Z,9.01
2023-12-29T08:45:16.996Z,9.27
2023-12-29T08:46:16.633Z,9.33
2023-12-29T08:47:16.380Z,9.34
2023-12-29T08:48:16.962Z,9.34
2023-12-29T08:49:16.754Z,9.33
2023-12-29T08:50:16.468Z,9.30
2023-12-29T08:51:17.027Z,9.27
2023-12-29T08:52:16.618Z,9.34
2023-12-29T08:53:16.335Z,9.38
2023-12-29T08:54:16.881Z,9.41
2023-12-29T08:55:16.594Z,9.47
2023-12-29T08:56:16.347Z,9.55
2023-12-29T08:57:16.908Z,9.59
2023-12-29T08:58:16.461Z,9.66
2023-12-29T08:59:17.071Z,9.71
2023-12-29T09:00:16.617Z,9.74
2023-12-29T09:01:17.230Z,9.80
2023-12-29T09:02:16.898Z,9.80
2023-12-29T09:03:16.494Z,9.85
2023-12-29T09:04:17.164Z,9.92
2023-12-29T09:05:16.911Z,9.93
2023-12-29T09:06:16.553Z,9.91
2023-12-29T09:07:17.195Z,9.91
2023-12-29T09:08:16.846Z,10.03
2023-12-29T09:09:16.415Z,9.99
2023-12-29T09:10:17.056Z,10.02
2023-12-29T09:11:17.583Z,10.00
2023-12-29T09:12:17.303Z,10.00
2023-12-29T09:13:16.924Z,10.03
2023-12-29T09:14:16.608Z,10.00
2023-12-29T09:15:17.169Z,10.02
2023-12-29T09:16:16.908Z,10.02
2023-12-29T09:17:16.611Z,9.99
2023-12-29T09:18:17.228Z,10.02
2023-12-29T09:19:22.638Z,10.05
2023-12-29T09:20:16.672Z,10.05
2023-12-29T09:21:16.378Z,10.09
2023-12-29T09:22:16.991Z,10.05
2023-12-29T09:23:16.688Z,10.14
2023-12-29T09:24:17.242Z,10.17
2023-12-29T09:25:16.890Z,10.19
2023-12-29T09:26:16.547Z,10.17
2023-12-29T09:27:17.094Z,10.12
2023-12-29T09:28:16.697Z,10.13
2023-12-29T09:29:16.380Z,10.16
2023-12-29T09:30:17.000Z,10.19
2023-12-29T09:31:16.668Z,10.24
2023-12-29T09:32:16.458Z,10.34
2023-12-29T09:33:17.024Z,10.34
2023-12-29T09:34:16.698Z,10.38
2023-12-29T09:35:16.374Z,10.44
2023-12-29T09:36:16.914Z,10.47
2023-12-29T09:37:16.753Z,10.33
2023-12-29T09:38:17.278Z,10.33
2023-12-29T09:39:16.890Z,10.36
2023-12-29T09:40:16.560Z,10.28
2023-12-29T09:41:16.334Z,10.30
2023-12-29T09:42:16.976Z,10.28
2023-12-29T09:43:16.548Z,10.26
2023-12-29T09:44:16.392Z,10.21
2023-12-29T09:45:16.988Z,10.21
2023-12-29T09:46:16.611Z,10.20
2023-12-29T09:47:16.304Z,10.16
2023-12-29T09:48:16.900Z,10.13
2023-12-29T09:49:16.634Z,10.12
2023-12-29T09:50:16.343Z,10.12
2023-12-29T09:51:17.011Z,10.10
2023-12-29T09:52:16.588Z,10.13
2023-12-29T09:53:17.267Z,10.14
2023-12-29T09:54:16.810Z,10.13
2023-12-29T09:55:16.409Z,10.13
2023-12-29T09:56:17.201Z,10.14
2023-12-29T09:57:16.762Z,10.08
2023-12-29T09:58:17.325Z,10.12
2023-12-29T09:59:16.944Z,10.09
2023-12-29T10:00:16.492Z,10.10
2023-12-29T10:01:17.076Z,10.12
2023-12-29T10:02:16.791Z,10.12
2023-12-29T10:03:16.356Z,10.17
2023-12-29T10:04:17.006Z,10.20
2023-12-29T10:05:16.773Z,10.21
2023-12-29T10:06:16.547Z,10.21
2023-12-29T10:07:17.196Z,10.21
2023-12-29T10:08:16.811Z,10.23
2023-12-29T10:09:16.388Z,10.24
2023-12-29T10:10:17.211Z,10.23
2023-12-29T10:11:17.046Z,10.23
2023-12-29T10:12:16.575Z,10.23
2023-12-29T10:13:17.160Z,10.23
2023-12-29T10:14:16.813Z,10.23
2023-12-29T10:15:16.344Z,10.21
2023-12-29T10:16:17.010Z,10.17
2023-12-29T10:17:16.719Z,10.17
2023-12-29T10:18:17.373Z,10.24
2023-12-29T10:19:17.102Z,10.17
2023-12-29T10:20:16.815Z,10.17
2023-12-29T10:21:16.350Z,10.17
2023-12-29T10:22:17.030Z,10.17
2023-12-29T10:23:16.868Z,10.17
2023-12-29T10:24:16.456Z,10.16
2023-12-29T10:25:17.055Z,10.17
2023-12-29T10:26:16.809Z,10.16
2023-12-29T10:27:16.366Z,10.16
2023-12-29T10:28:16.974Z,10.16
2023-12-29T10:29:17.930Z,10.16
2023-12-29T10:30:21.627Z,10.16
2023-12-29T10:31:16.844Z,10.19
2023-12-29T10:32:16.668Z,10.17
2023-12-29T10:33:17.353Z,10.14
2023-12-29T10:34:17.127Z,10.14
2023-12-29T10:35:16.815Z,10.10
2023-12-29T10:36:16.388Z,10.10
2023-12-29T10:37:17.006Z,10.06
2023-12-29T10:38:16.706Z,10.09
2023-12-29T10:39:17.231Z,10.08
2023-12-29T10:40:16.849Z,10.08
2023-12-29T10:41:16.527Z,10.08
2023-12-29T10:42:17.038Z,10.06
2023-12-29T10:43:16.620Z,10.09
2023-12-29T10:44:17.233Z,10.10
2023-12-29T10:45:16.778Z,10.13
2023-12-29T10:46:16.457Z,10.13
2023-12-29T10:47:17.256Z,10.14
2023-12-29T10:48:16.800Z,10.09
2023-12-29T10:49:16.553Z,10.09
2023-12-29T10:50:16.427Z,10.08
2023-12-29T10:51:17.025Z,10.05
2023-12-29T10:52:16.783Z,10.06
2023-12-29T10:53:16.518Z,10.05
2023-12-29T10:54:17.092Z,10.08
2023-12-29T10:55:16.759Z,10.06
2023-12-29T10:56:16.774Z,10.13
2023-12-29T10:57:16.348Z,10.14
2023-12-29T10:58:17.015Z,10.21
2023-12-29T10:59:16.775Z,10.14
2023-12-29T11:00:16.329Z,10.14
2023-12-29T11:01:16.948Z,10.09
2023-12-29T11:02:16.786Z,10.12
2023-12-29T11:03:16.427Z,10.10
2023-12-29T11:04:17.023Z,10.12
2023-12-29T11:05:16.709Z,10.10
2023-12-29T11:06:16.342Z,10.09
2023-12-29T11:07:16.910Z,10.08
2023-12-29T11:08:16.598Z,10.08
2023-12-29T11:09:17.177Z,10.03
2023-12-29T11:10:16.758Z,10.05
2023-12-29T11:11:16.381Z,10.03
2023-12-29T11:12:16.910Z,10.05
2023-12-29T11:13:18.572Z,10.08
2023-12-29T11:14:16.496Z,10.03
2023-12-29T11:15:17.034Z,10.03
2023-12-29T11:16:16.615Z,10.05
2023-12-29T11:17:17.291Z,10.02
2023-12-29T11:18:16.968Z,9.98
2023-12-29T11:19:16.591Z,9.99
2023-12-29T11:20:17.285Z,9.98
2023-12-29T11:21:16.892Z,10.00
2023-12-29T11:22:16.450Z,10.00
2023-12-29T11:23:17.124Z,10.02
2023-12-29T11:24:21.089Z,10.02
2023-12-29T11:25:16.590Z,10.03
2023-12-29T11:26:16.431Z,10.03
2023-12-29T11:27:16.960Z,10.09
2023-12-29T11:28:16.896Z,10.10
2023-12-29T11:29:16.742Z,10.13
2023-12-29T11:30:17.350Z,10.14
2023-12-29T11:31:17.128Z,10.13
2023-12-29T11:32:16.877Z,10.23
2023-12-29T11:33:16.629Z,10.24
2023-12-29T11:34:16.525Z,10.27
2023-12-29T11:35:16.396Z,10.27
2023-12-29T11:36:23.428Z,10.24
2023-12-29T11:37:16.370Z,10.28
2023-12-29T11:38:17.105Z,10.30
2023-12-29T11:39:16.751Z,10.33
2023-12-29T11:40:17.379Z,10.36
2023-12-29T11:41:17.086Z,10.38
2023-12-29T11:42:16.767Z,10.43
2023-12-29T11:43:16.409Z,10.41
2023-12-29T11:44:17.076Z,10.43
2023-12-29T11:45:16.659Z,10.49
2023-12-29T11:46:17.285Z,10.55
2023-12-29T11:47:16.926Z,10.57
2023-12-29T11:48:16.591Z,10.60
2023-12-29T11:49:17.289Z,10.60
2023-12-29T11:50:17.015Z,10.62
2023-12-29T11:51:16.570Z,10.68
2023-12-29T11:52:17.465Z,10.61
2023-12-29T11:53:16.644Z,10.64
2023-12-29T11:54:17.182Z,10.68
2023-12-29T11:55:16.758Z,10.67
2023-12-29T11:56:16.472Z,10.65
2023-12-29T11:57:17.033Z,10.70
2023-12-29T11:58:16.655Z,10.81
2023-12-29T11:59:16.614Z,10.82
2023-12-29T12:00:17.297Z,10.81
2023-12-29T12:01:16.908Z,10.83
2023-12-29T12:02:16.694Z,10.82
2023-12-29T12:03:17.297Z,10.88
2023-12-29T12:04:16.915Z,10.98
2023-12-29T12:05:16.590Z,11.02
2023-12-29T12:06:17.257Z,11.00
2023-12-29T12:07:16.847Z,10.96
2023-12-29T12:08:16.648Z,11.02
2023-12-29T12:09:17.207Z,11.04
2023-12-29T12:10:16.877Z,11.07
2023-12-29T12:11:16.620Z,11.11
2023-12-29T12:12:17.166Z,11.18
2023-12-29T12:13:16.713Z,11.17
2023-12-29T12:14:16.342Z,11.17
2023-12-29T12:15:16.875Z,11.21
2023-12-29T12:16:16.495Z,11.24
2023-12-29T12:17:17.160Z,11.21
2023-12-29T12:18:16.772Z,11.24
2023-12-29T12:19:16.601Z,11.28
2023-12-29T12:20:16.373Z,11.26
2023-12-29T12:21:17.063Z,11.21
2023-12-29T12:22:16.633Z,11.24
2023-12-29T12:23:17.276Z,11.27
2023-12-29T12:24:16.834Z,11.26
2023-12-29T12:25:16.441Z,11.26
2023-12-29T12:26:17.270Z,11.26
2023-12-29T12:27:16.810Z,11.28
2023-12-29T12:28:16.464Z,11.35
2023-12-29T12:29:17.211Z,11.37
2023-12-29T12:30:16.762Z,11.34
2023-12-29T12:31:16.500Z,11.28
2023-12-29T12:32:17.284Z,11.30
2023-12-29T12:33:17.201Z,11.40
2023-12-29T12:34:16.915Z,11.41
2023-12-29T12:35:17.754Z,11.41
2023-12-29T12:36:16.555Z,11.43
2023-12-29T12:37:17.132Z,11.40
2023-12-29T12:38:16.718Z,11.37
2023-12-29T12:39:17.272Z,11.38
2023-12-29T12:40:16.875Z,11.34
2023-12-29T12:41:18.015Z,11.34
2023-12-29T12:42:16.774Z,11.33
2023-12-29T12:43:16.363Z,11.31
2023-12-29T12:44:17.212Z,11.40
2023-12-29T12:45:16.944Z,11.41
2023-12-29T12:46:16.625Z,11.43
2023-12-29T12:47:18.608Z,11.48
2023-12-29T12:48:16.500Z,11.48
2023-12-29T12:49:17.341Z,11.48
2023-12-29T12:50:17.128Z,11.48
2023-12-29T12:51:16.710Z,11.48
2023-12-29T12:52:17.282Z,11.47
2023-12-29T12:53:16.987Z,11.40
2023-12-29T12:54:16.572Z,11.37
2023-12-29T12:55:17.221Z,11.45
2023-12-29T12:56:16.979Z,11.45
2023-12-29T12:57:16.601Z,11.44
2023-12-29T12:58:17.160Z,11.43
2023-12-29T12:59:16.857Z,11.43
2023-12-29T13:00:16.432Z,11.40
2023-12-29T13:01:16.803Z,11.37
2023-12-29T13:02:17.345Z,11.41
2023-12-29T13:03:16.737Z,11.38
2023-12-29T13:04:16.569Z,11.38
2023-12-29T13:05:16.600Z,11.37
2023-12-29T13:06:16.516Z,11.34
2023-12-29T13:07:17.179Z,11.26
2023-12-29T13:08:21.065Z,11.28
2023-12-29T13:09:16.471Z,11.26
2023-12-29T13:10:17.038Z,11.26
2023-12-29T13:11:16.699Z,11.27
2023-12-29T13:12:17.265Z,11.24